createdAt,value
2019-05-28T00:01:55.835Z,16.02
2019-05-28T00:04:26.708Z,15.89
2019-05-28T00:06:55.855Z,15.91
2019-05-28T00:09:25.611Z,15.98
2019-05-28T00:11:55.060Z,15.94
2019-05-28T00:14:24.305Z,15.87
2019-05-28T00:16:53.074Z,15.79
2019-05-28T00:19:21.964Z,15.69
2019-05-28T00:21:50.862Z,15.52
2019-05-28T00:24:21.077Z,15.16
2019-05-28T00:26:49.864Z,15.42
2019-05-28T00:29:18.652Z,15.74
2019-05-28T00:31:47.543Z,15.66
2019-05-28T00:34:17.971Z,15.55
2019-05-28T00:36:46.865Z,15.84
2019-05-28T00:39:15.753Z,15.78
2019-05-28T00:41:44.644Z,15.77
2019-05-28T00:44:13.536Z,15.69
2019-05-28T00:46:42.324Z,15.64
2019-05-28T00:49:12.445Z,15.75
2019-05-28T00:51:43.134Z,15.72
2019-05-28T00:54:12.685Z,15.89
2019-05-28T00:56:42.005Z,15.90
2019-05-28T00:59:11.389Z,15.87
2019-05-28T01:01:40.280Z,15.51
2019-05-28T01:04:09.797Z,15.80
2019-05-28T01:06:38.676Z,15.85
2019-05-28T01:09:08.759Z,15.83
2019-05-28T01:11:37.687Z,15.89
2019-05-28T01:14:06.682Z,15.72
2019-05-28T01:16:35.572Z,15.26
2019-05-28T01:19:04.567Z,15.49
2019-05-28T01:21:34.071Z,15.44
2019-05-28T01:24:02.964Z,15.63
2019-05-28T01:26:31.754Z,15.38
2019-05-28T01:29:00.561Z,15.32
2019-05-28T01:31:29.431Z,15.49
2019-05-28T01:33:58.461Z,15.50
2019-05-28T01:36:27.318Z,14.99
2019-05-28T01:38:56.208Z,15.31
2019-05-28T01:41:25.099Z,15.40
2019-05-28T01:43:53.992Z,15.50
2019-05-28T01:46:23.188Z,15.22
2019-05-28T01:48:52.081Z,14.88
2019-05-28T01:51:20.932Z,15.13
2019-05-28T01:53:49.862Z,15.39
2019-05-28T01:56:18.650Z,14.82
2019-05-28T01:58:47.442Z,14.53
2019-05-28T02:01:16.330Z,14.86
2019-05-28T02:03:45.222Z,14.77
2019-05-28T02:06:14.011Z,14.47
2019-05-28T02:08:42.902Z,14.50
2019-05-28T02:11:12.099Z,14.25
2019-05-28T02:13:40.999Z,14.43
2019-05-28T02:16:11.713Z,14.89
2019-05-28T02:18:40.653Z,15.05
2019-05-28T02:21:09.816Z,15.18
2019-05-28T02:23:38.706Z,15.25
2019-05-28T02:26:09.236Z,15.34
2019-05-28T02:28:38.101Z,15.23
2019-05-28T02:31:07.307Z,15.22
2019-05-28T02:33:36.218Z,14.82
2019-05-28T02:36:05.112Z,15.09
2019-05-28T02:38:34.005Z,15.14
2019-05-28T02:41:02.891Z,15.04
2019-05-28T02:43:31.885Z,15.06
2019-05-28T02:46:00.664Z,15.01
2019-05-28T02:48:29.464Z,15.06
2019-05-28T02:51:00.391Z,15.07
2019-05-28T02:53:30.988Z,15.04
2019-05-28T02:56:00.951Z,15.18
2019-05-28T02:58:34.788Z,15.35
2019-05-28T03:01:05.370Z,15.29
2019-05-28T03:03:34.492Z,15.16
2019-05-28T03:06:06.445Z,15.30
2019-05-28T03:08:35.543Z,15.24
2019-05-28T03:11:04.913Z,15.20
2019-05-28T03:13:34.060Z,15.16
2019-05-28T03:16:04.726Z,15.07
2019-05-28T03:18:36.418Z,15.14
2019-05-28T03:21:06.598Z,15.22
2019-05-28T03:23:38.647Z,14.69
2019-05-28T03:26:08.654Z,14.97
2019-05-28T03:28:37.614Z,14.91
2019-05-28T03:31:07.630Z,14.99
2019-05-28T03:33:36.539Z,14.64
2019-05-28T03:36:06.862Z,14.86
2019-05-28T03:38:37.342Z,14.17
2019-05-28T03:41:06.181Z,13.98
2019-05-28T03:43:35.076Z,14.58
2019-05-28T03:46:04.106Z,14.79
2019-05-28T03:48:32.959Z,14.36
2019-05-28T03:51:01.850Z,14.32
2019-05-28T03:53:30.739Z,14.71
2019-05-28T03:55:59.532Z,14.34
2019-05-28T03:58:28.319Z,14.16
2019-05-28T04:00:57.209Z,14.10
2019-05-28T04:03:26.102Z,14.25
2019-05-28T04:05:54.993Z,14.37
2019-05-28T04:08:23.884Z,14.41
2019-05-28T04:10:52.775Z,14.68
2019-05-28T04:13:21.666Z,14.69
2019-05-28T04:15:50.564Z,14.06
2019-05-28T04:18:19.449Z,14.32
2019-05-28T04:20:48.347Z,14.11
2019-05-28T04:23:17.690Z,14.04
2019-05-28T04:25:47.719Z,14.02
2019-05-28T04:28:16.555Z,14.22
2019-05-28T04:30:45.562Z,14.01
2019-05-28T04:33:14.445Z,14.15
2019-05-28T04:35:43.325Z,14.34
2019-05-28T04:38:12.523Z,14.22
2019-05-28T04:40:41.416Z,14.29
2019-05-28T04:43:10.613Z,14.22
2019-05-28T04:45:39.503Z,14.16
2019-05-28T04:48:08.466Z,13.90
2019-05-28T04:50:37.388Z,14.12
2019-05-28T04:53:06.810Z,14.20
2019-05-28T04:55:35.690Z,13.91
2019-05-28T04:58:04.573Z,14.02
2019-05-28T05:00:33.465Z,13.88
2019-05-28T05:03:02.366Z,13.56
2019-05-28T05:05:31.275Z,13.39
2019-05-28T05:08:00.141Z,13.51
2019-05-28T05:10:29.030Z,13.55
2019-05-28T05:12:57.920Z,13.49
2019-05-28T05:15:26.812Z,13.43
2019-05-28T05:17:55.703Z,13.38
2019-05-28T05:20:24.612Z,13.54
2019-05-28T05:22:53.589Z,13.36
2019-05-28T05:25:22.584Z,13.28
2019-05-28T05:27:51.505Z,13.36
2019-05-28T05:30:20.909Z,13.27
2019-05-28T05:32:49.768Z,13.16
2019-05-28T05:35:18.866Z,13.33
2019-05-28T05:37:47.756Z,13.52
2019-05-28T05:40:17.340Z,13.48
2019-05-28T05:42:46.355Z,13.51
2019-05-28T05:45:15.635Z,13.61
2019-05-28T05:47:45.777Z,13.71
2019-05-28T05:50:16.226Z,13.60
2019-05-28T05:52:45.108Z,13.71
2019-05-28T05:55:15.585Z,13.68
2019-05-28T05:57:44.413Z,13.77
2019-05-28T06:00:14.961Z,13.10
2019-05-28T06:02:43.839Z,13.18
2019-05-28T06:05:13.853Z,13.04
2019-05-28T06:07:42.756Z,13.01
2019-05-28T06:10:12.046Z,13.18
2019-05-28T06:12:40.940Z,13.14
2019-05-28T06:15:10.114Z,13.43
2019-05-28T06:17:38.922Z,13.39
2019-05-28T06:20:09.331Z,13.40
2019-05-28T06:22:38.241Z,13.24
2019-05-28T06:25:08.126Z,13.49
2019-05-28T06:27:37.049Z,13.68
2019-05-28T06:30:08.143Z,13.83
2019-05-28T06:32:38.186Z,13.77
2019-05-28T06:35:07.822Z,13.77
2019-05-28T06:37:36.707Z,13.77
2019-05-28T06:40:07.904Z,13.78
2019-05-28T06:42:39.614Z,13.33
2019-05-28T06:45:09.028Z,13.67
2019-05-28T06:47:38.007Z,13.45
2019-05-28T06:50:12.022Z,13.61
2019-05-28T06:52:41.628Z,13.42
2019-05-28T06:55:11.546Z,13.46
2019-05-28T06:57:40.433Z,13.67
2019-05-28T07:00:10.632Z,13.79
2019-05-28T07:02:39.656Z,13.82
2019-05-28T07:05:08.952Z,13.70
2019-05-28T07:07:38.040Z,13.88
2019-05-28T07:10:09.679Z,13.88
2019-05-28T07:12:38.696Z,13.99
2019-05-28T07:15:08.180Z,14.13
2019-05-28T07:17:36.993Z,14.17
2019-05-28T07:20:07.638Z,14.20
2019-05-28T07:22:36.516Z,14.17
2019-05-28T07:25:07.249Z,13.85
2019-05-28T07:27:36.242Z,14.01
2019-05-28T07:30:09.480Z,13.95
2019-05-28T07:32:38.333Z,13.72
2019-05-28T07:35:07.501Z,13.59
2019-05-28T07:37:36.312Z,13.49
2019-05-28T07:40:09.540Z,13.61
2019-05-28T07:42:38.403Z,13.56
2019-05-28T07:45:09.005Z,13.55
2019-05-28T07:47:37.828Z,13.63
2019-05-28T07:50:09.870Z,13.92
2019-05-28T07:52:38.775Z,13.73
2019-05-28T07:55:08.185Z,13.56
2019-05-28T07:57:37.067Z,13.63
2019-05-28T08:00:07.750Z,13.49
2019-05-28T08:02:36.795Z,13.46
2019-05-28T08:05:09.320Z,13.27
2019-05-28T08:07:38.265Z,13.49
2019-05-28T08:10:08.620Z,13.46
2019-05-28T08:12:37.638Z,13.32
2019-05-28T08:15:07.808Z,13.64
2019-05-28T08:17:36.775Z,13.61
2019-05-28T08:20:06.759Z,13.94
2019-05-28T08:22:42.137Z,13.94
2019-05-28T08:25:23.584Z,13.96
2019-05-28T08:27:37.587Z,13.60
2019-05-28T08:30:08.136Z,13.79
2019-05-28T08:32:37.010Z,14.39
2019-05-28T08:35:07.378Z,14.39
2019-05-28T08:37:36.326Z,14.45
2019-05-28T08:40:07.064Z,14.60
2019-05-28T08:42:36.054Z,14.54
2019-05-28T08:45:06.542Z,14.69
2019-05-28T08:47:35.519Z,14.63
2019-05-28T08:50:06.101Z,14.68
2019-05-28T08:52:35.003Z,14.92
2019-05-28T08:55:04.783Z,15.18
2019-05-28T08:57:37.240Z,15.31
2019-05-28T09:00:11.510Z,15.46
2019-05-28T09:02:40.392Z,15.81
2019-05-28T09:05:25.101Z,15.17
2019-05-28T09:07:40.941Z,15.04
2019-05-28T09:10:10.407Z,15.45
2019-05-28T09:12:39.343Z,15.40
2019-05-28T09:15:08.923Z,15.07
2019-05-28T09:17:39.285Z,15.12
2019-05-28T09:20:08.881Z,14.82
2019-05-28T09:22:37.771Z,14.82
2019-05-28T09:25:07.169Z,14.53
2019-05-28T09:27:35.964Z,14.60
2019-05-28T09:30:07.720Z,14.81
2019-05-28T09:32:36.641Z,14.73
2019-05-28T09:35:09.572Z,14.83
2019-05-28T09:37:38.507Z,14.60
2019-05-28T09:40:08.181Z,14.44
2019-05-28T09:42:37.197Z,14.31
2019-05-28T09:45:21.743Z,14.41
2019-05-28T09:47:38.049Z,14.51
2019-05-28T09:50:26.931Z,14.32
2019-05-28T09:52:52.946Z,14.34
2019-05-28T09:55:10.063Z,13.96
2019-05-28T09:57:47.314Z,13.62
2019-05-28T10:00:17.350Z,13.42
2019-05-28T10:02:46.349Z,12.33
2019-05-28T10:05:15.647Z,11.63
2019-05-28T10:07:44.536Z,10.97
2019-05-28T10:10:13.633Z,11.74
2019-05-28T10:12:42.637Z,11.74
2019-05-28T10:15:12.627Z,11.92
2019-05-28T10:17:41.433Z,12.01
2019-05-28T10:20:12.224Z,12.10
2019-05-28T10:22:41.161Z,11.97
2019-05-28T10:25:11.181Z,12.30
2019-05-28T10:27:58.497Z,12.45
2019-05-28T10:30:14.608Z,12.50
2019-05-28T10:32:43.590Z,12.86
2019-05-28T10:35:13.582Z,12.88
2019-05-28T10:37:42.404Z,12.91
2019-05-28T10:40:12.727Z,12.96
2019-05-28T10:42:43.519Z,13.31
2019-05-28T10:45:14.318Z,13.26
2019-05-28T10:47:43.189Z,13.41
2019-05-28T10:50:12.792Z,13.23
2019-05-28T10:52:41.681Z,13.37
2019-05-28T10:55:15.675Z,12.98
2019-05-28T10:57:42.777Z,13.05
2019-05-28T11:00:12.853Z,13.50
2019-05-28T11:02:41.764Z,13.62
2019-05-28T11:05:13.262Z,13.67
2019-05-28T11:07:42.093Z,13.71
2019-05-28T11:10:23.779Z,13.57
2019-05-28T11:12:43.765Z,13.33
2019-05-28T11:15:13.801Z,13.48
2019-05-28T11:17:42.674Z,13.55
2019-05-28T11:20:14.444Z,13.51
2019-05-28T11:22:43.324Z,13.36
2019-05-28T11:25:13.241Z,13.51
2019-05-28T11:27:42.130Z,13.56
2019-05-28T11:30:13.776Z,13.75
2019-05-28T11:32:44.215Z,13.80
2019-05-28T11:35:14.548Z,13.76
2019-05-28T11:37:43.433Z,13.75
2019-05-28T11:40:15.271Z,13.67
2019-05-28T11:42:45.308Z,13.74
2019-05-28T11:45:17.140Z,13.66
2019-05-28T11:47:50.184Z,13.81
2019-05-28T11:50:19.281Z,13.59
2019-05-28T11:52:48.254Z,13.47
2019-05-28T11:55:17.836Z,13.60
2019-05-28T11:57:49.408Z,13.33
2019-05-28T12:00:18.791Z,13.47
2019-05-28T12:02:47.807Z,13.45
2019-05-28T12:05:17.013Z,13.34
2019-05-28T12:07:45.894Z,13.10
2019-05-28T12:10:16.687Z,12.70
2019-05-28T12:12:45.621Z,12.22
2019-05-28T12:15:16.603Z,12.11
2019-05-28T12:17:45.830Z,12.53
2019-05-28T12:20:18.016Z,12.77
2019-05-28T12:22:47.029Z,12.98
2019-05-28T12:25:16.409Z,13.00
2019-05-28T12:27:45.216Z,12.72
2019-05-28T12:30:18.515Z,13.26
2019-05-28T12:32:47.093Z,13.12
2019-05-28T12:35:28.369Z,13.53
2019-05-28T12:37:50.458Z,13.47
2019-05-28T12:40:19.273Z,13.52
2019-05-28T12:42:48.192Z,13.55
2019-05-28T12:45:17.679Z,13.47
2019-05-28T12:48:06.995Z,13.46
2019-05-28T12:50:20.310Z,13.73
2019-05-28T12:52:48.162Z,13.84
2019-05-28T12:55:17.740Z,13.88
2019-05-28T12:57:46.656Z,13.74
2019-05-28T13:00:16.048Z,13.54
2019-05-28T13:02:44.958Z,13.67
2019-05-28T13:05:19.018Z,13.63
2019-05-28T13:08:06.372Z,13.77
2019-05-28T13:10:18.805Z,13.38
2019-05-28T13:12:47.688Z,13.51
2019-05-28T13:15:18.228Z,13.22
2019-05-28T13:17:47.110Z,13.57
2019-05-28T13:20:16.850Z,12.94
2019-05-28T13:22:46.631Z,13.27
2019-05-28T13:25:15.623Z,13.03
2019-05-28T13:27:44.511Z,12.98
2019-05-28T13:30:14.870Z,13.45
2019-05-28T13:32:44.752Z,13.61
2019-05-28T13:35:16.115Z,13.49
2019-05-28T13:37:45.002Z,13.47
2019-05-28T13:40:16.019Z,13.18
2019-05-28T13:42:44.823Z,13.42
2019-05-28T13:45:14.784Z,13.35
2019-05-28T13:47:43.629Z,13.47
2019-05-28T13:50:14.776Z,13.52
2019-05-28T13:52:43.955Z,13.49
2019-05-28T13:55:13.684Z,13.61
2019-05-28T13:57:42.882Z,13.59
2019-05-28T14:00:17.674Z,13.40
2019-05-28T14:02:46.989Z,13.45
2019-05-28T14:05:16.898Z,13.33
2019-05-28T14:07:45.919Z,13.66
2019-05-28T14:10:17.976Z,13.64
2019-05-28T14:12:48.312Z,13.56
2019-05-28T14:15:17.499Z,13.62
2019-05-28T14:17:46.312Z,13.57
2019-05-28T14:20:15.623Z,13.82
2019-05-28T14:22:44.507Z,13.77
2019-05-28T14:25:15.150Z,13.77
2019-05-28T14:27:44.126Z,13.66
2019-05-28T14:30:18.337Z,13.77
2019-05-28T14:32:47.238Z,13.67
2019-05-28T14:35:16.325Z,13.70
2019-05-28T14:37:45.213Z,13.59
2019-05-28T14:40:15.548Z,13.61
2019-05-28T14:42:44.633Z,13.60
2019-05-28T14:45:14.406Z,13.79
2019-05-28T14:47:44.776Z,13.85
2019-05-28T14:50:22.093Z,13.91
2019-05-28T14:52:52.389Z,13.70
2019-05-28T14:55:21.502Z,13.94
2019-05-28T14:57:50.471Z,13.86
2019-05-28T15:00:19.957Z,13.82
2019-05-28T15:02:49.585Z,13.91
2019-05-28T15:05:18.564Z,13.72
2019-05-28T15:07:47.371Z,13.61
2019-05-28T15:10:19.360Z,13.45
2019-05-28T15:12:48.223Z,13.74
2019-05-28T15:15:34.581Z,13.82
2019-05-28T15:17:48.259Z,13.83
2019-05-28T15:20:17.847Z,13.79
2019-05-28T15:22:46.758Z,13.87
2019-05-28T15:25:16.878Z,14.00
2019-05-28T15:27:45.807Z,13.97
2019-05-28T15:30:15.655Z,14.09
2019-05-28T15:32:44.685Z,14.12
2019-05-28T15:35:14.268Z,14.21
2019-05-28T15:37:43.129Z,14.23
2019-05-28T15:40:13.295Z,14.09
2019-05-28T15:42:42.188Z,14.20
2019-05-28T15:45:12.802Z,14.31
2019-05-28T15:47:44.787Z,14.26
2019-05-28T15:50:13.548Z,14.20
2019-05-28T15:52:42.462Z,14.02
2019-05-28T15:55:14.165Z,13.93
2019-05-28T15:57:43.083Z,13.82
2019-05-28T16:00:21.377Z,13.71
2019-05-28T16:02:50.318Z,13.60
2019-05-28T16:05:19.308Z,13.53
2019-05-28T16:07:48.099Z,13.59
2019-05-28T16:10:17.382Z,13.46
2019-05-28T16:12:46.604Z,13.43
2019-05-28T16:15:16.797Z,13.38
2019-05-28T16:17:45.609Z,13.24
2019-05-28T16:20:15.495Z,13.21
2019-05-28T16:22:44.456Z,12.74
2019-05-28T16:25:15.384Z,12.72
2019-05-28T16:27:45.855Z,12.56
2019-05-28T16:30:15.339Z,12.46
2019-05-28T16:32:44.285Z,12.22
2019-05-28T16:35:13.683Z,11.83
2019-05-28T16:37:42.573Z,11.72
2019-05-28T16:40:15.696Z,11.72
2019-05-28T16:42:42.921Z,11.83
2019-05-28T16:45:13.715Z,11.69
2019-05-28T16:47:42.546Z,10.80
2019-05-28T16:50:13.567Z,11.51
2019-05-28T16:52:42.680Z,11.60
2019-05-28T16:55:12.902Z,11.63
2019-05-28T16:57:41.792Z,11.76
2019-05-28T17:00:11.919Z,11.57
2019-05-28T17:02:41.830Z,11.27
2019-05-28T17:05:11.265Z,10.82
2019-05-28T17:07:40.123Z,11.11
2019-05-28T17:10:10.142Z,11.18
2019-05-28T17:12:39.086Z,11.21
2019-05-28T17:15:09.870Z,11.32
2019-05-28T17:17:39.069Z,11.42
2019-05-28T17:20:09.252Z,11.61
2019-05-28T17:22:38.592Z,11.73
2019-05-28T17:25:11.691Z,11.84
2019-05-28T17:27:40.470Z,11.67
2019-05-28T17:30:23.313Z,11.89
2019-05-28T17:32:40.416Z,12.61
2019-05-28T17:35:10.249Z,12.65
2019-05-28T17:37:39.213Z,13.13
2019-05-28T17:40:08.625Z,13.18
2019-05-28T17:42:37.502Z,13.06
2019-05-28T17:45:07.082Z,13.09
2019-05-28T17:47:43.127Z,12.58
2019-05-28T17:50:08.189Z,12.57
2019-05-28T17:52:37.350Z,12.40
2019-05-28T17:55:07.327Z,12.45
2019-05-28T17:57:36.384Z,12.57
2019-05-28T18:00:06.766Z,12.75
2019-05-28T18:02:35.717Z,13.27
2019-05-28T18:05:05.685Z,12.90
2019-05-28T18:07:34.606Z,12.90
2019-05-28T18:10:08.622Z,12.72
2019-05-28T18:12:37.509Z,12.54
2019-05-28T18:15:10.243Z,12.62
2019-05-28T18:17:39.088Z,12.52
2019-05-28T18:20:10.272Z,12.30
2019-05-28T18:22:41.746Z,12.14
2019-05-28T18:25:12.264Z,12.08
2019-05-28T18:27:41.099Z,11.68
2019-05-28T18:30:11.326Z,11.57
2019-05-28T18:32:40.219Z,11.63
2019-05-28T18:35:10.799Z,11.09
2019-05-28T18:37:41.628Z,11.24
2019-05-28T18:40:12.417Z,11.55
2019-05-28T18:42:46.825Z,12.39
2019-05-28T18:45:16.108Z,12.28
2019-05-28T18:47:45.235Z,12.15
2019-05-28T18:50:14.676Z,12.14
2019-05-28T18:52:45.206Z,11.82
2019-05-28T18:55:15.276Z,11.91
2019-05-28T18:57:50.373Z,11.42
2019-05-28T19:00:15.700Z,11.56
2019-05-28T19:02:44.627Z,11.67
2019-05-28T19:05:16.049Z,11.65
2019-05-28T19:07:44.878Z,10.75
2019-05-28T19:10:15.418Z,11.47
2019-05-28T19:12:44.291Z,11.38
2019-05-28T19:15:14.406Z,11.44
2019-05-28T19:17:43.300Z,11.39
2019-05-28T19:20:15.280Z,11.08
2019-05-28T19:22:44.161Z,11.15
2019-05-28T19:25:14.472Z,11.25
2019-05-28T19:27:43.415Z,11.32
2019-05-28T19:30:14.411Z,11.27
2019-05-28T19:32:44.115Z,11.29
2019-05-28T19:35:13.014Z,10.58
2019-05-28T19:37:43.607Z,10.11
2019-05-28T19:40:14.607Z,10.71
2019-05-28T19:42:43.467Z,11.04
2019-05-28T19:45:13.285Z,10.64
2019-05-28T19:47:43.302Z,10.79
2019-05-28T19:50:13.449Z,10.80
2019-05-28T19:52:42.305Z,10.73
2019-05-28T19:55:11.632Z,10.82
2019-05-28T19:57:40.506Z,10.75
2019-05-28T20:00:10.343Z,10.74
2019-05-28T20:02:39.316Z,10.50
2019-05-28T20:05:09.667Z,10.33
2019-05-28T20:07:38.527Z,10.51
2019-05-28T20:10:08.507Z,10.63
2019-05-28T20:12:37.435Z,10.57
2019-05-28T20:15:08.749Z,10.77
2019-05-28T20:17:37.736Z,10.76
2019-05-28T20:20:08.216Z,10.79
2019-05-28T20:22:37.111Z,10.87
2019-05-28T20:25:07.280Z,10.79
2019-05-28T20:27:37.743Z,11.09
2019-05-28T20:30:07.865Z,11.18
2019-05-28T20:32:36.773Z,11.12
2019-05-28T20:35:07.777Z,11.10
2019-05-28T20:37:36.688Z,11.17
2019-05-28T20:40:08.046Z,11.06
2019-05-28T20:42:37.476Z,11.02
2019-05-28T20:45:11.860Z,11.06
2019-05-28T20:47:40.445Z,11.11
2019-05-28T20:50:11.795Z,10.85
2019-05-28T20:52:40.993Z,10.66
2019-05-28T20:55:10.807Z,10.55
2019-05-28T20:57:39.712Z,10.53
2019-05-28T21:00:13.535Z,10.63
2019-05-28T21:02:42.412Z,10.21
2019-05-28T21:05:12.909Z,10.13
2019-05-28T21:07:41.812Z,10.16
2019-05-28T21:10:11.730Z,10.11
2019-05-28T21:12:44.508Z,10.07
2019-05-28T21:15:15.860Z,9.95
2019-05-28T21:17:44.139Z,9.93
2019-05-28T21:20:13.751Z,9.89
2019-05-28T21:22:42.637Z,9.73
2019-05-28T21:25:12.450Z,9.65
2019-05-28T21:27:41.347Z,9.87
2019-05-28T21:30:11.256Z,10.18
2019-05-28T21:32:40.149Z,10.23
2019-05-28T21:35:10.373Z,10.36
2019-05-28T21:37:39.259Z,10.54
2019-05-28T21:40:10.174Z,10.50
2019-05-28T21:42:39.067Z,10.41
2019-05-28T21:45:09.079Z,10.27
2019-05-28T21:47:37.897Z,10.54
2019-05-28T21:50:08.183Z,10.19
2019-05-28T21:52:37.011Z,10.17
2019-05-28T21:55:10.421Z,10.18
2019-05-28T21:57:39.297Z,10.41
2019-05-28T22:00:30.822Z,10.75
2019-05-28T22:03:00.692Z,10.79
2019-05-28T22:05:29.626Z,10.84
2019-05-28T22:07:59.432Z,10.70
2019-05-28T22:10:29.253Z,10.65
2019-05-28T22:13:12.322Z,10.70
2019-05-28T22:15:28.884Z,10.72
2019-05-28T22:17:58.020Z,10.50
2019-05-28T22:20:26.970Z,10.49
2019-05-28T22:22:56.310Z,10.51
2019-05-28T22:25:25.365Z,10.26
2019-05-28T22:27:54.160Z,10.45
2019-05-28T22:30:23.642Z,10.52
2019-05-28T22:32:52.557Z,10.54
2019-05-28T22:35:21.548Z,10.38
2019-05-28T22:37:50.437Z,10.25
2019-05-28T22:40:19.535Z,10.51
2019-05-28T22:42:48.425Z,10.33
2019-05-28T22:45:17.408Z,10.51
2019-05-28T22:47:46.209Z,10.35
2019-05-28T22:50:22.888Z,10.61
2019-05-28T22:52:47.473Z,10.39
2019-05-28T22:55:16.647Z,10.49
2019-05-28T22:57:45.460Z,10.79
2019-05-28T23:00:14.775Z,10.44
2019-05-28T23:02:43.648Z,10.60
2019-05-28T23:05:12.948Z,10.64
2019-05-28T23:07:41.838Z,10.60
2019-05-28T23:10:11.192Z,10.59
2019-05-28T23:12:40.134Z,10.66
2019-05-28T23:15:10.617Z,10.52
2019-05-28T23:17:39.457Z,10.53
2019-05-28T23:20:10.989Z,10.52
2019-05-28T23:22:40.307Z,10.50
2019-05-28T23:25:11.715Z,10.69
2019-05-28T23:27:40.644Z,10.32
2019-05-28T23:30:23.321Z,9.76
2019-05-28T23:32:41.196Z,10.05
2019-05-28T23:35:12.721Z,10.33
2019-05-28T23:37:41.645Z,10.44
2019-05-28T23:40:11.762Z,10.33
2019-05-28T23:42:40.561Z,10.53
2019-05-28T23:45:11.762Z,10.44
2019-05-28T23:47:40.793Z,10.51
2019-05-28T23:50:14.214Z,9.82
2019-05-28T23:52:40.530Z,10.09
2019-05-28T23:55:10.015Z,10.34
2019-05-28T23:57:38.817Z,10.44
